Time;durP1;ratioP1;P1;durP2;ratioP2;P2;SDS_P1;SDS_P2;PMS_P1;PMS_P2;Temp;Humidity;BMP_temperature;BMP_pressure;BME280_temperature;BME280_humidity;BME280_pressure;Samples;Min_cycle;Max_cycle;Signal;HPM_P1;HPM_P2
2022/04/02 00:01:39;;;;;;;7.97;5.20;;;1.50;99.90;;;;;;5021341;28;20230;-76
2022/04/02 00:04:05;;;;;;;8.03;5.03;;;1.50;99.90;;;;;;5035529;28;20229;-77
2022/04/02 00:06:31;;;;;;;7.83;5.13;;;1.50;99.90;;;;;;5053008;28;20244;-77
2022/04/02 00:08:57;;;;;;;9.30;4.87;;;1.50;99.90;;;;;;5052870;28;20179;-77
2022/04/02 00:11:23;;;;;;;7.20;4.53;;;1.50;99.90;;;;;;5052744;28;20560;-77
2022/04/02 00:13:48;;;;;;;6.90;4.43;;;1.50;99.90;;;;;;5034644;28;20281;-77
2022/04/02 00:16:14;;;;;;;9.33;5.47;;;1.50;99.90;;;;;;5053093;28;20268;-77
2022/04/02 00:18:41;;;;;;;8.03;4.70;;;1.50;99.90;;;;;;5035100;28;20214;-77
2022/04/02 00:21:07;;;;;;;7.13;4.60;;;1.50;99.90;;;;;;5034805;28;20187;-77
2022/04/02 00:23:43;;;;;;;8.53;4.43;;;1.50;99.90;;;;;;5052006;28;20201;-76
2022/04/02 00:26:22;;;;;;;4.73;4.03;;;1.50;99.90;;;;;;5052548;28;20584;-77
2022/04/02 00:28:49;;;;;;;8.53;4.43;;;1.50;99.90;;;;;;5054507;28;20198;-77
2022/04/02 00:31:16;;;;;;;7.97;4.47;;;1.40;99.90;;;;;;5056343;28;20261;-77
2022/04/02 00:33:45;;;;;;;6.47;4.10;;;1.40;99.90;;;;;;5019897;28;20306;-77
2022/04/02 00:36:11;;;;;;;7.20;4.37;;;1.40;99.90;;;;;;5018898;28;20282;-77
2022/04/02 00:38:37;;;;;;;5.03;4.33;;;1.50;99.90;;;;;;5018402;28;20188;-77
2022/04/02 00:41:03;;;;;;;5.67;3.90;;;1.50;99.90;;;;;;5036296;28;20591;-77
2022/04/02 00:43:33;;;;;;;7.97;4.43;;;1.40;99.90;;;;;;5036616;28;20188;-77
2022/04/02 00:46:01;;;;;;;5.20;3.90;;;1.40;99.90;;;;;;5036332;28;20181;-76
2022/04/02 00:48:27;;;;;;;5.17;3.73;;;1.50;99.90;;;;;;5018383;28;20275;-76
2022/04/02 00:50:58;;;;;;;4.17;3.33;;;1.50;99.90;;;;;;5018480;28;20188;-76
2022/04/02 00:53:28;;;;;;;8.27;4.27;;;1.50;99.90;;;;;;5051322;28;20192;-77
2022/04/02 00:55:54;;;;;;;6.53;3.87;;;1.50;99.90;;;;;;5056161;28;20187;-76
2022/04/02 00:58:20;;;;;;;5.57;3.77;;;1.50;99.90;;;;;;5038061;28;20581;-77
2022/04/02 01:00:46;;;;;;;7.63;3.77;;;1.50;99.90;;;;;;5038217;28;20301;-77
2022/04/02 01:03:13;;;;;;;7.20;3.97;;;1.50;99.90;;;;;;5042054;28;20218;-77
2022/04/02 01:05:39;;;;;;;5.60;3.53;;;1.50;99.90;;;;;;5036553;28;20649;-76
2022/04/02 01:08:08;;;;;;;4.23;3.30;;;1.50;99.90;;;;;;5051085;28;20201;-77
2022/04/02 01:10:36;;;;;;;5.23;3.70;;;1.50;99.90;;;;;;5035879;28;20203;-77
2022/04/02 01:13:03;;;;;;;6.40;3.73;;;1.50;99.90;;;;;;5047200;28;20213;-77
2022/04/02 01:15:29;;;;;;;4.50;3.33;;;1.50;99.90;;;;;;5037845;28;20190;-78
2022/04/02 01:17:55;;;;;;;3.70;3.07;;;1.50;99.90;;;;;;5050027;28;20195;-77
2022/04/02 01:20:22;;;;;;;6.10;3.33;;;1.50;99.90;;;;;;5038516;28;20194;-76
2022/04/02 01:22:48;;;;;;;6.10;2.93;;;1.50;99.90;;;;;;5034393;28;20218;-77
2022/04/02 01:25:13;;;;;;;4.53;3.50;;;1.60;99.90;;;;;;5055569;28;20184;-77
2022/04/02 01:27:39;;;;;;;4.10;3.30;;;1.50;99.90;;;;;;5037714;28;20596;-77
2022/04/02 01:30:06;;;;;;;6.37;3.00;;;1.50;99.90;;;;;;5037817;28;20685;-77
2022/04/02 01:32:32;;;;;;;9.03;3.20;;;1.50;99.90;;;;;;5044626;28;20208;-77
2022/04/02 01:34:58;;;;;;;4.50;3.30;;;1.60;99.90;;;;;;5017723;28;20241;-77
2022/04/02 01:37:23;;;;;;;6.83;3.03;;;1.50;99.90;;;;;;5035424;28;20184;-77
2022/04/02 01:39:49;;;;;;;5.97;3.00;;;1.50;99.90;;;;;;5049816;28;20702;-76
2022/04/02 01:42:17;;;;;;;5.50;3.20;;;1.60;99.90;;;;;;5035520;28;20277;-77
2022/04/02 01:44:49;;;;;;;6.07;3.20;;;1.60;99.90;;;;;;5050781;28;20188;-76
2022/04/02 01:47:15;;;;;;;3.03;2.67;;;1.60;99.90;;;;;;5035524;28;20539;-77
2022/04/02 01:49:40;;;;;;;7.97;3.47;;;1.60;99.90;;;;;;5036448;28;20176;-76
2022/04/02 01:52:06;;;;;;;5.20;2.83;;;1.60;99.90;;;;;;5042735;28;20199;-76
2022/04/02 01:54:32;;;;;;;6.77;2.80;;;1.60;99.90;;;;;;5054818;28;20267;-76
2022/04/02 01:56:57;;;;;;;6.77;3.50;;;1.50;99.90;;;;;;5036921;28;20274;-76
2022/04/02 01:59:23;;;;;;;7.40;3.20;;;1.60;99.90;;;;;;5036896;28;20181;-76
2022/04/02 02:01:48;;;;;;;4.10;2.60;;;1.50;99.90;;;;;;5054246;28;20233;-77
2022/04/02 02:04:14;;;;;;;3.83;2.73;;;1.60;99.90;;;;;;5036768;28;20183;-76
2022/04/02 02:06:40;;;;;;;4.60;2.50;;;1.60;99.90;;;;;;5036795;28;20191;-76
2022/04/02 02:09:06;;;;;;;5.10;2.43;;;1.60;99.90;;;;;;5036660;28;20282;-76
2022/04/02 02:11:31;;;;;;;3.00;2.33;;;1.60;99.90;;;;;;5051962;28;20226;-75
2022/04/02 02:13:58;;;;;;;4.30;2.37;;;1.60;99.90;;;;;;5034384;28;20671;-77
2022/04/02 02:16:24;;;;;;;5.07;2.87;;;1.60;99.90;;;;;;5034378;28;20525;-76
2022/04/02 02:18:50;;;;;;;6.17;2.90;;;1.60;99.90;;;;;;5034450;28;20191;-77
2022/04/02 02:21:16;;;;;;;4.83;2.50;;;1.60;99.90;;;;;;5049768;28;20672;-78
2022/04/02 02:23:42;;;;;;;6.20;2.77;;;1.60;99.90;;;;;;5034317;28;20269;-77
2022/04/02 02:26:07;;;;;;;2.97;2.30;;;1.60;99.90;;;;;;5034342;28;20176;-76
2022/04/02 02:28:33;;;;;;;3.57;2.57;;;1.60;99.90;;;;;;5034435;28;20214;-77
2022/04/02 02:30:59;;;;;;;6.17;2.40;;;1.60;99.90;;;;;;5034140;28;20188;-77
2022/04/02 02:36:08;;;;;;;3.07;2.30;;;1.60;99.90;;;;;;5034843;28;20168;-76
2022/04/02 02:38:34;;;;;;;4.83;2.50;;;1.60;99.90;;;;;;5016265;28;20180;-76
2022/04/02 02:40:59;;;;;;;4.53;3.10;;;1.60;99.90;;;;;;5033991;28;20547;-77
2022/04/02 02:43:25;;;;;;;4.00;2.47;;;1.60;99.90;;;;;;5051999;28;20738;-76
2022/04/02 02:45:51;;;;;;;6.63;2.80;;;1.60;99.90;;;;;;5036097;28;20282;-76
2022/04/02 02:48:16;;;;;;;2.90;2.60;;;1.60;99.90;;;;;;5053841;28;20658;-75
2022/04/02 02:50:42;;;;;;;4.50;2.70;;;1.60;99.90;;;;;;5035813;28;20186;-77
2022/04/02 02:53:08;;;;;;;7.40;3.07;;;1.60;99.90;;;;;;5038949;28;20228;-76
2022/04/02 02:55:34;;;;;;;3.57;2.90;;;1.60;99.90;;;;;;5033667;28;20176;-77
2022/04/02 02:57:59;;;;;;;3.13;2.30;;;1.60;99.90;;;;;;5016874;28;20536;-77
2022/04/02 03:00:25;;;;;;;3.87;2.53;;;1.60;99.90;;;;;;5033754;28;20546;-77
2022/04/02 03:02:50;;;;;;;5.90;2.43;;;1.60;99.90;;;;;;5033857;28;20577;-77
2022/04/02 03:05:17;;;;;;;4.27;2.30;;;1.60;99.90;;;;;;5049030;28;20187;-77
2022/04/02 03:07:51;;;;;;;4.33;2.73;;;1.60;99.90;;;;;;5033514;28;20175;-77
2022/04/02 03:10:18;;;;;;;3.00;1.80;;;1.60;99.90;;;;;;5033677;28;20176;-77
2022/04/02 03:12:45;;;;;;;4.77;2.30;;;1.60;99.90;;;;;;5043491;28;20803;-77
2022/04/02 03:15:11;;;;;;;4.13;1.83;;;1.60;99.90;;;;;;5035438;28;20190;-77
2022/04/02 03:17:37;;;;;;;4.60;2.00;;;1.60;99.90;;;;;;5035487;28;20217;-77
2022/04/02 03:20:04;;;;;;;3.00;2.00;;;1.60;99.90;;;;;;5035444;28;20187;-77
2022/04/02 03:22:30;;;;;;;3.97;2.30;;;1.60;99.90;;;;;;5053118;28;20206;-77
2022/04/02 03:24:56;;;;;;;3.50;2.17;;;1.60;99.90;;;;;;5035472;28;20388;-76
2022/04/02 03:27:21;;;;;;;4.77;2.17;;;1.60;99.90;;;;;;5053760;28;20694;-76
2022/04/02 03:29:48;;;;;;;2.57;2.00;;;1.70;99.90;;;;;;5035457;28;20278;-77
2022/04/02 03:32:13;;;;;;;3.00;2.10;;;1.70;99.90;;;;;;5053047;28;20202;-77
2022/04/02 03:34:39;;;;;;;3.87;1.83;;;1.60;99.90;;;;;;5053326;28;20708;-77
2022/04/02 03:37:05;;;;;;;2.80;2.10;;;1.60;99.90;;;;;;5054012;28;20172;-76
2022/04/02 03:39:31;;;;;;;4.43;2.27;;;1.70;99.90;;;;;;5057866;28;20279;-76
2022/04/02 03:41:56;;;;;;;4.17;2.20;;;1.70;99.90;;;;;;5052560;28;20250;-77
2022/04/02 03:44:22;;;;;;;4.47;2.00;;;1.70;99.90;;;;;;5035205;28;20329;-77
2022/04/02 03:49:31;;;;;;;2.40;1.90;;;1.60;99.90;;;;;;5053558;28;20173;-77
2022/04/02 03:51:57;;;;;;;3.43;2.10;;;1.70;99.90;;;;;;5052077;28;20207;-77
2022/04/02 03:54:22;;;;;;;4.23;2.20;;;1.60;99.90;;;;;;5052704;28;20225;-77
2022/04/02 03:56:48;;;;;;;3.87;1.97;;;1.70;99.90;;;;;;5035098;28;20180;-77
2022/04/02 03:59:14;;;;;;;5.00;1.67;;;1.60;99.90;;;;;;5052888;28;20193;-77
2022/04/02 04:01:39;;;;;;;3.80;2.07;;;1.60;99.90;;;;;;5052070;28;20348;-77
2022/04/02 04:04:05;;;;;;;6.17;2.00;;;1.60;99.90;;;;;;5037593;28;20183;-77
2022/04/02 04:06:34;;;;;;;5.83;2.03;;;1.70;99.90;;;;;;5056930;28;20218;-77
2022/04/02 04:09:00;;;;;;;4.37;2.10;;;1.60;99.90;;;;;;5057168;28;20182;-77
2022/04/02 04:11:26;;;;;;;3.53;2.00;;;1.70;99.90;;;;;;5056009;28;20205;-77
2022/04/02 04:13:53;;;;;;;6.40;2.10;;;1.60;99.90;;;;;;5037082;28;20200;-76
2022/04/02 04:16:19;;;;;;;4.93;2.10;;;1.70;99.90;;;;;;5052308;28;20729;-77
2022/04/02 04:18:45;;;;;;;4.97;2.30;;;1.60;99.90;;;;;;5036993;28;20655;-77
2022/04/02 04:21:14;;;;;;;2.83;1.90;;;1.60;99.90;;;;;;5037193;28;20181;-78
2022/04/02 04:23:39;;;;;;;6.83;2.10;;;1.70;99.90;;;;;;5037967;28;20215;-77
2022/04/02 04:26:05;;;;;;;3.60;2.00;;;1.70;99.90;;;;;;5038210;28;20191;-77
2022/04/02 04:28:30;;;;;;;4.07;1.70;;;1.70;99.90;;;;;;5040530;28;20267;-77
2022/04/02 04:30:56;;;;;;;3.20;2.07;;;1.70;99.90;;;;;;5055825;28;20199;-77
2022/04/02 04:33:21;;;;;;;2.77;1.83;;;1.70;99.90;;;;;;5053350;28;20226;-77
2022/04/02 04:35:47;;;;;;;3.70;2.00;;;1.70;99.90;;;;;;5038686;28;20195;-77
2022/04/02 04:38:13;;;;;;;3.20;2.10;;;1.70;99.90;;;;;;5056527;28;20545;-77
2022/04/02 04:40:38;;;;;;;2.47;1.90;;;1.70;99.90;;;;;;5038678;28;20187;-77
2022/04/02 04:43:04;;;;;;;4.60;2.07;;;1.70;99.90;;;;;;5056729;28;20227;-77
2022/04/02 04:45:29;;;;;;;4.30;1.90;;;1.70;99.90;;;;;;5056327;28;20180;-77
2022/04/02 04:47:55;;;;;;;3.43;1.90;;;1.70;99.90;;;;;;5056278;28;20550;-77
2022/04/02 04:50:21;;;;;;;3.33;1.90;;;1.60;99.90;;;;;;5056592;28;20187;-77
2022/04/02 04:52:46;;;;;;;4.57;2.20;;;1.60;99.90;;;;;;5045357;28;20208;-77
2022/04/02 04:55:12;;;;;;;5.50;2.07;;;1.70;99.90;;;;;;5051635;28;20188;-77
2022/04/02 04:57:37;;;;;;;2.63;1.97;;;1.70;99.90;;;;;;5036522;28;20187;-77
2022/04/02 05:00:05;;;;;;;2.13;1.77;;;1.70;99.90;;;;;;5036341;28;20273;-77
2022/04/02 05:02:31;;;;;;;2.80;1.93;;;1.70;99.90;;;;;;5044138;28;20265;-77
2022/04/02 05:04:57;;;;;;;3.10;2.10;;;1.70;99.90;;;;;;5056150;28;20646;-77
2022/04/02 05:07:23;;;;;;;7.07;2.77;;;1.70;99.90;;;;;;5055978;28;20321;-77
2022/04/02 05:09:49;;;;;;;3.83;1.90;;;1.70;99.90;;;;;;5056105;28;20238;-77
2022/04/02 05:12:15;;;;;;;3.27;1.80;;;1.70;99.90;;;;;;5056464;28;20206;-78
2022/04/02 05:14:41;;;;;;;4.43;2.20;;;1.70;99.90;;;;;;5055036;28;20180;-77
2022/04/02 05:17:07;;;;;;;13.33;2.10;;;1.70;99.90;;;;;;5055904;28;20185;-76
2022/04/02 05:19:33;;;;;;;5.60;2.00;;;1.70;99.90;;;;;;5056250;28;20548;-76
2022/04/02 05:21:58;;;;;;;2.67;1.93;;;1.80;99.90;;;;;;5048152;28;20215;-77
2022/04/02 05:24:24;;;;;;;3.00;2.10;;;1.70;99.90;;;;;;5035994;28;20271;-76
2022/04/02 05:26:50;;;;;;;2.50;1.80;;;1.70;99.90;;;;;;5036231;28;20176;-75
2022/04/02 05:29:16;;;;;;;3.40;1.60;;;1.70;99.90;;;;;;5022216;28;20192;-76
2022/04/02 05:31:42;;;;;;;2.40;1.73;;;1.70;99.90;;;;;;5053544;28;20589;-76
2022/04/02 05:34:08;;;;;;;7.00;2.07;;;1.70;99.90;;;;;;5055217;28;20202;-77
2022/04/02 05:36:35;;;;;;;4.73;2.47;;;1.70;99.90;;;;;;5055183;28;20175;-76
2022/04/02 05:39:00;;;;;;;3.00;2.00;;;1.80;99.90;;;;;;5055076;28;20184;-77
2022/04/02 05:41:26;;;;;;;4.37;2.20;;;1.80;99.90;;;;;;5054019;28;20261;-78
2022/04/02 05:43:52;;;;;;;4.23;2.00;;;1.80;99.90;;;;;;5053906;28;20195;-78
2022/04/02 05:46:18;;;;;;;2.17;1.70;;;1.80;99.90;;;;;;5051508;28;20201;-76
2022/04/02 05:48:43;;;;;;;3.00;2.20;;;1.80;99.90;;;;;;5048689;28;20187;-77
2022/04/02 05:51:09;;;;;;;3.50;1.73;;;1.80;99.90;;;;;;5055097;28;20560;-79
2022/04/02 05:53:35;;;;;;;3.23;2.30;;;1.90;99.90;;;;;;5054769;28;20557;-81
2022/04/02 05:56:01;;;;;;;3.10;1.80;;;1.80;99.90;;;;;;5056626;28;20245;-78
2022/04/02 05:58:28;;;;;;;4.40;2.60;;;1.90;99.90;;;;;;5039206;28;20603;-78
2022/04/02 06:00:53;;;;;;;4.30;2.40;;;1.90;99.90;;;;;;5056586;28;20245;-79
2022/04/02 06:03:20;;;;;;;5.47;2.60;;;1.90;99.90;;;;;;5039918;28;20698;-79
2022/04/02 06:05:47;;;;;;;3.97;2.50;;;1.90;99.90;;;;;;5035908;28;20188;-78
2022/04/02 06:08:13;;;;;;;2.57;2.10;;;1.90;99.90;;;;;;5035704;28;20603;-78
2022/04/02 06:10:38;;;;;;;3.37;2.20;;;1.90;99.90;;;;;;5054921;28;20199;-78
2022/04/02 06:13:04;;;;;;;7.67;2.23;;;1.90;99.90;;;;;;5041546;28;20215;-79
2022/04/02 06:15:30;;;;;;;5.27;2.13;;;1.90;99.90;;;;;;5036043;28;20179;-78
2022/04/02 06:17:55;;;;;;;6.23;2.63;;;2.00;99.90;;;;;;5018970;28;20233;-79
2022/04/02 06:20:21;;;;;;;2.80;2.00;;;1.90;99.90;;;;;;5044218;28;20723;-78
2022/04/02 06:22:46;;;;;;;4.87;2.07;;;2.00;99.90;;;;;;5065129;28;20198;-77
2022/04/02 06:25:12;;;;;;;4.57;2.40;;;2.00;99.90;;;;;;5045688;28;20206;-79
2022/04/02 06:27:46;;;;;;;3.10;2.00;;;2.00;99.90;;;;;;5055462;28;20187;-79
2022/04/02 06:30:18;;;;;;;4.50;2.17;;;2.10;99.90;;;;;;5051394;28;20658;-79
2022/04/02 06:32:43;;;;;;;3.20;2.00;;;2.10;99.90;;;;;;5047954;28;20208;-79
2022/04/02 06:35:09;;;;;;;4.77;2.40;;;2.10;99.90;;;;;;5036614;28;20628;-78
2022/04/02 06:37:37;;;;;;;4.73;2.20;;;2.10;99.90;;;;;;5034979;28;20192;-77
2022/04/02 06:40:04;;;;;;;3.20;2.30;;;2.20;99.90;;;;;;5016234;28;20188;-76
2022/04/02 06:42:30;;;;;;;6.23;2.67;;;2.20;99.90;;;;;;5024959;28;20222;-79
2022/04/02 06:44:56;;;;;;;4.07;1.97;;;2.20;99.90;;;;;;5053604;28;20184;-76
2022/04/02 06:47:30;;;;;;;3.63;2.27;;;2.20;99.90;;;;;;5043319;28;20191;-77
2022/04/02 06:49:56;;;;;;;2.47;1.87;;;2.20;99.90;;;;;;5053276;28;20191;-75
2022/04/02 06:52:22;;;;;;;3.67;2.03;;;2.30;99.90;;;;;;5053751;28;20373;-78
2022/04/02 06:54:49;;;;;;;3.60;2.27;;;2.30;99.90;;;;;;5036735;28;20275;-78
2022/04/02 06:57:19;;;;;;;2.43;1.97;;;2.30;1.00;;;;;;5053972;28;20585;-75
2022/04/02 06:59:44;;;;;;;5.30;2.33;;;2.30;1.00;;;;;;5053422;28;20516;-75
2022/04/02 07:02:10;;;;;;;4.17;2.10;;;2.40;76.80;;;;;;5052026;28;20226;-76
2022/04/02 07:04:35;;;;;;;2.70;1.83;;;2.40;1.00;;;;;;5035228;28;20184;-76
2022/04/02 07:07:01;;;;;;;4.50;2.23;;;2.50;99.90;;;;;;5052811;28;20175;-77
2022/04/02 07:09:27;;;;;;;2.60;2.03;;;2.40;1.00;;;;;;5052630;28;20663;-77
2022/04/02 07:11:52;;;;;;;6.03;2.20;;;2.50;1.00;;;;;;5029348;28;20200;-78
2022/04/02 07:14:18;;;;;;;4.77;2.20;;;2.50;1.00;;;;;;5030989;28;20261;-77
2022/04/02 07:16:44;;;;;;;5.53;1.70;;;2.60;1.00;;;;;;5033858;28;20651;-75
2022/04/02 07:19:10;;;;;;;7.67;1.90;;;2.60;99.90;;;;;;5034456;28;20180;-77
2022/04/02 07:21:36;;;;;;;3.63;2.30;;;2.60;99.90;;;;;;5019159;28;20679;-78
2022/04/02 07:24:02;;;;;;;5.07;2.33;;;2.70;99.90;;;;;;5052192;28;20176;-78
2022/04/02 07:26:32;;;;;;;3.20;1.87;;;2.70;99.90;;;;;;5034758;28;20179;-77
2022/04/02 07:28:59;;;;;;;4.33;2.40;;;2.70;89.60;;;;;;5052261;28;20163;-78
2022/04/02 07:31:25;;;;;;;4.20;2.40;;;2.80;99.90;;;;;;5032794;28;20295;-77
2022/04/02 07:33:50;;;;;;;3.13;1.90;;;2.80;99.90;;;;;;5033463;28;20283;-76
2022/04/02 07:36:23;;;;;;;3.70;2.23;;;2.90;99.90;;;;;;5033785;28;20643;-76
2022/04/02 07:39:03;;;;;;;3.30;1.90;;;2.90;1.00;;;;;;5048260;28;20548;-75
2022/04/02 07:41:43;;;;;;;5.50;2.40;;;3.00;99.90;;;;;;5033340;28;20207;-76
2022/04/02 07:44:21;;;;;;;5.60;2.63;;;3.00;1.00;;;;;;5033435;28;20180;-78
2022/04/02 07:46:48;;;;;;;4.97;2.33;;;3.00;1.00;;;;;;5015751;28;20262;-78
2022/04/02 07:49:19;;;;;;;4.37;2.00;;;3.00;1.00;;;;;;5034089;28;20192;-77
2022/04/02 07:51:51;;;;;;;3.13;2.10;;;3.10;1.00;;;;;;5052418;28;20217;-77
2022/04/02 07:54:19;;;;;;;2.93;2.03;;;3.10;1.00;;;;;;5054538;28;20195;-78
2022/04/02 07:56:49;;;;;;;3.07;2.03;;;3.10;1.00;;;;;;5053573;28;20233;-77
2022/04/02 07:59:30;;;;;;;3.23;2.10;;;3.20;1.00;;;;;;5054953;28;20171;-77
2022/04/02 08:01:56;;;;;;;4.73;2.27;;;3.20;1.00;;;;;;5051372;28;20196;-81
2022/04/02 08:04:25;;;;;;;2.67;2.07;;;3.30;1.00;;;;;;5076236;28;20186;-77
2022/04/02 08:06:52;;;;;;;2.67;1.90;;;3.40;1.00;;;;;;5076386;28;20176;-78
2022/04/02 08:09:19;;;;;;;6.97;2.10;;;3.40;99.90;;;;;;5075959;28;20175;-78
2022/04/02 08:11:46;;;;;;;4.83;2.27;;;3.40;99.90;;;;;;5052564;28;20207;-77
2022/04/02 08:14:11;;;;;;;3.37;2.20;;;3.40;99.90;;;;;;5069604;28;20235;-77
2022/04/02 08:16:42;;;;;;;5.00;2.40;;;3.50;99.90;;;;;;5055209;28;20227;-75
2022/04/02 08:19:09;;;;;;;3.93;1.93;;;3.50;1.00;;;;;;5045033;28;20176;-78
2022/04/02 08:21:36;;;;;;;8.67;2.40;;;3.50;1.00;;;;;;5039965;28;20192;-78
2022/04/02 08:24:03;;;;;;;5.40;2.70;;;3.60;99.90;;;;;;5056588;28;20245;-78
2022/04/02 08:26:48;;;;;;;4.00;2.33;;;3.60;47.80;;;;;;5056811;28;20180;-78
2022/04/02 08:29:17;;;;;;;4.00;1.97;;;3.70;1.00;;;;;;5056273;28;20176;-77
2022/04/02 08:32:20;;;;;;;4.40;2.40;;;3.70;1.00;;;;;;5035175;28;20204;-78
2022/04/02 08:35:03;;;;;;;3.50;1.80;;;3.70;1.00;;;;;;5036515;28;20219;-78
2022/04/02 08:37:29;;;;;;;5.47;2.43;;;3.80;1.00;;;;;;5036271;28;20540;-78
2022/04/02 08:40:32;;;;;;;4.63;2.40;;;3.80;1.00;;;;;;5035758;28;20191;-78
2022/04/02 08:43:25;;;;;;;3.60;2.30;;;3.90;99.90;;;;;;5082389;22;20246;-76
2022/04/02 08:46:31;;;;;;;4.60;2.40;;;4.00;1.00;;;;;;5078123;28;20209;-76
2022/04/02 08:48:58;;;;;;;3.40;2.00;;;4.00;1.00;;;;;;5064928;28;20302;-77
2022/04/02 08:51:27;;;;;;;5.63;2.70;;;4.10;1.00;;;;;;5063003;28;20187;-77
2022/04/02 08:54:03;;;;;;;2.67;2.13;;;4.10;1.00;;;;;;5061599;28;20218;-76
2022/04/02 08:56:31;;;;;;;2.37;2.17;;;4.20;99.90;;;;;;5062513;28;20183;-77
2022/04/02 08:59:01;;;;;;;3.50;2.30;;;4.30;99.90;;;;;;5062361;28;20176;-77
2022/04/02 09:01:34;;;;;;;5.30;2.13;;;4.30;1.00;;;;;;5061181;28;20642;-76
2022/04/02 09:04:03;;;;;;;4.07;2.50;;;4.30;1.00;;;;;;5061695;28;20199;-76
2022/04/02 09:06:34;;;;;;;4.27;2.23;;;4.30;1.00;;;;;;5060951;28;20191;-76
2022/04/02 09:09:00;;;;;;;4.47;2.43;;;4.40;1.00;;;;;;5042703;28;20187;-77
2022/04/02 09:11:59;;;;;;;6.70;2.53;;;4.40;99.90;;;;;;5043679;28;20218;-77
2022/04/02 09:15:16;;;;;;;3.10;2.53;;;4.40;1.00;;;;;;5082101;28;20214;-76
2022/04/02 09:18:12;;;;;;;3.77;2.17;;;4.50;1.00;;;;;;5023659;28;20179;-76
2022/04/02 09:20:54;;;;;;;2.77;2.50;;;4.50;99.90;;;;;;5067882;28;20171;-76
2022/04/02 09:23:45;;;;;;;3.27;2.23;;;4.60;1.00;;;;;;5045254;28;20211;-77
2022/04/02 09:26:33;;;;;;;4.73;2.70;;;4.60;1.00;;;;;;5043989;28;20183;-76
2022/04/02 09:29:07;;;;;;;3.03;2.47;;;4.60;99.90;;;;;;5043721;28;20179;-77
2022/04/02 09:31:51;;;;;;;2.87;2.20;;;4.60;1.00;;;;;;5046935;28;20622;-77
2022/04/02 09:34:20;;;;;;;3.47;2.30;;;4.60;99.90;;;;;;5082987;28;20222;-76
2022/04/02 09:37:19;;;;;;;5.90;2.73;;;4.60;99.90;;;;;;5082694;28;20563;-76
2022/04/02 09:40:02;;;;;;;3.57;2.30;;;4.70;99.90;;;;;;5082694;28;20167;-76
2022/04/02 09:42:43;;;;;;;4.50;2.40;;;4.80;99.90;;;;;;5078023;28;20561;-76
2022/04/02 09:45:09;;;;;;;4.63;2.40;;;4.90;1.00;;;;;;5065175;28;20183;-77
2022/04/02 09:48:08;;;;;;;3.40;2.17;;;4.90;55.90;;;;;;5085023;28;20278;-77
2022/04/02 09:50:35;;;;;;;3.93;2.93;;;4.90;99.90;;;;;;5085370;28;20175;-77
2022/04/02 09:53:12;;;;;;;4.57;2.60;;;5.00;99.90;;;;;;5067701;28;20207;-78
2022/04/02 09:56:08;;;;;;;3.53;2.30;;;5.00;92.50;;;;;;5043376;28;20171;-77
2022/04/02 09:58:37;;;;;;;3.30;2.23;;;4.90;1.00;;;;;;5043689;28;20554;-76
2022/04/02 10:01:05;;;;;;;4.67;2.50;;;5.00;1.00;;;;;;5043251;28;20474;-76
2022/04/02 10:03:57;;;;;;;4.33;2.57;;;4.80;1.00;;;;;;5043819;28;20278;-75
2022/04/02 10:06:28;;;;;;;4.30;2.67;;;4.80;99.90;;;;;;5042033;28;20188;-76
2022/04/02 10:09:09;;;;;;;4.00;2.80;;;4.80;1.00;;;;;;5042773;28;20183;-75
2022/04/02 10:11:40;;;;;;;4.90;2.67;;;4.80;99.90;;;;;;5045334;28;20188;-76
2022/04/02 10:14:07;;;;;;;4.50;2.67;;;4.80;99.90;;;;;;5062888;28;20210;-76
2022/04/02 10:16:35;;;;;;;5.17;3.10;;;4.90;1.00;;;;;;5080988;28;20167;-76
2022/04/02 10:19:07;;;;;;;4.93;2.87;;;4.90;99.90;;;;;;5080582;28;20665;-76
2022/04/02 10:21:36;;;;;;;4.57;3.00;;;4.90;1.00;;;;;;5060495;28;20202;-76
2022/04/02 10:24:21;;;;;;;3.40;2.40;;;4.90;1.00;;;;;;5059867;28;20706;-76
2022/04/02 10:26:53;;;;;;;5.87;3.30;;;4.90;1.00;;;;;;5060527;28;20187;-76
2022/04/02 10:30:03;;;;;;;4.90;3.40;;;4.90;99.90;;;;;;5059811;28;20631;-77
2022/04/02 10:33:26;;;;;;;5.77;3.40;;;4.80;99.90;;;;;;5059526;28;20766;-77
2022/04/02 10:35:53;;;;;;;6.43;3.73;;;4.80;1.00;;;;;;5078568;28;20228;-77
2022/04/02 10:38:29;;;;;;;5.03;3.37;;;4.80;1.00;;;;;;5077899;28;20171;-78
2022/04/02 10:40:56;;;;;;;4.30;3.00;;;4.80;99.90;;;;;;5074925;28;20642;-75
2022/04/02 10:43:32;;;;;;;6.17;3.60;;;4.80;1.00;;;;;;5036307;28;20771;-77
2022/04/02 10:46:00;;;;;;;3.50;3.20;;;4.60;58.00;;;;;;5033288;28;20176;-77
2022/04/02 10:48:55;;;;;;;5.33;4.07;;;4.50;99.90;;;;;;5035136;28;20287;-76
2022/04/02 10:51:23;;;;;;;5.17;3.77;;;4.50;99.90;;;;;;5034928;28;20188;-79
2022/04/02 10:53:59;;;;;;;5.63;3.93;;;4.30;1.00;;;;;;5054895;28;20570;-76
2022/04/02 10:56:32;;;;;;;5.57;4.10;;;4.30;1.00;;;;;;5054943;28;20188;-74
2022/04/02 10:58:58;;;;;;;6.13;3.30;;;4.20;1.00;;;;;;5056394;28;20155;-75
2022/04/02 11:01:25;;;;;;;6.07;3.93;;;4.20;1.00;;;;;;5055935;28;20179;-77
2022/04/02 11:03:56;;;;;;;6.50;3.47;;;4.30;99.90;;;;;;5034746;28;20210;-75
2022/04/02 11:06:48;;;;;;;6.43;4.10;;;4.50;1.00;;;;;;5036776;28;20176;-75
2022/04/02 11:09:33;;;;;;;4.10;3.30;;;4.60;99.90;;;;;;5036942;28;20191;-75
2022/04/02 11:12:03;;;;;;;5.00;3.80;;;4.80;1.00;;;;;;5034858;28;20183;-75
2022/04/02 11:14:42;;;;;;;5.30;3.70;;;4.90;99.90;;;;;;5035265;28;20197;-75
2022/04/02 11:17:11;;;;;;;3.90;3.13;;;4.90;22.90;;;;;;5036681;28;20168;-76
2022/04/02 11:19:56;;;;;;;7.33;3.80;;;5.00;99.90;;;;;;5036942;28;20282;-76
2022/04/02 11:22:29;;;;;;;3.20;2.90;;;5.00;1.00;;;;;;5042045;28;20195;-75
2022/04/02 11:25:03;;;;;;;3.77;3.07;;;4.80;99.90;;;;;;5055939;28;20164;-75
2022/04/02 11:27:30;;;;;;;4.40;3.40;;;4.90;1.00;;;;;;5055602;28;20673;-75
2022/04/02 11:30:05;;;;;;;4.43;3.30;;;5.00;20.50;;;;;;5054799;28;20182;-76
2022/04/02 11:32:38;;;;;;;4.10;3.00;;;5.10;1.00;;;;;;5043433;28;20222;-76
2022/04/02 11:35:08;;;;;;;5.53;2.93;;;5.20;1.00;;;;;;5036126;28;20168;-76
2022/04/02 11:37:45;;;;;;;3.70;2.77;;;5.20;99.90;;;;;;5036176;28;20176;-75
2022/04/02 11:40:13;;;;;;;3.40;2.77;;;5.30;99.90;;;;;;5035388;28;20172;-75
2022/04/02 11:42:46;;;;;;;2.97;2.43;;;5.30;1.00;;;;;;5045115;28;20238;-75
2022/04/02 11:45:18;;;;;;;5.77;3.30;;;5.30;1.00;;;;;;5055955;28;20171;-76
2022/04/02 11:47:49;;;;;;;3.13;2.63;;;5.30;99.90;;;;;;5055227;28;20179;-75
2022/04/02 11:50:27;;;;;;;6.90;3.37;;;5.30;99.90;;;;;;5055761;28;20179;-76
2022/04/02 11:52:56;;;;;;;4.40;3.10;;;5.30;99.90;;;;;;5053781;28;20212;-76
2022/04/02 11:55:24;;;;;;;5.57;3.00;;;5.30;99.90;;;;;;5054458;28;20746;-76
2022/04/02 11:58:05;;;;;;;4.00;3.03;;;5.30;1.00;;;;;;5054890;28;20179;-75
2022/04/02 12:00:34;;;;;;;5.17;2.83;;;5.30;99.90;;;;;;5053789;28;20183;-73
2022/04/02 12:03:00;;;;;;;4.17;3.33;;;5.30;1.00;;;;;;5053480;28;20207;-75
2022/04/02 12:05:42;;;;;;;5.50;3.07;;;5.00;99.90;;;;;;5053593;28;20238;-75
2022/04/02 12:08:10;;;;;;;3.83;3.07;;;5.00;1.00;;;;;;5054797;28;20262;-75
2022/04/02 12:10:44;;;;;;;4.97;3.10;;;5.00;43.40;;;;;;5054629;28;20184;-75
2022/04/02 12:13:10;;;;;;;4.60;3.10;;;5.00;1.00;;;;;;5037651;28;20212;-75
2022/04/02 12:15:36;;;;;;;4.37;2.90;;;5.00;1.00;;;;;;5035750;28;20235;-76
2022/04/02 12:18:07;;;;;;;4.60;3.40;;;4.90;1.00;;;;;;5035819;28;20176;-76
2022/04/02 12:20:35;;;;;;;8.80;4.07;;;4.90;1.00;;;;;;5033446;28;20188;-75
2022/04/02 12:23:18;;;;;;;4.27;3.40;;;4.80;99.90;;;;;;5048584;28;20678;-76
2022/04/02 12:25:53;;;;;;;7.70;4.50;;;4.70;1.00;;;;;;5058506;28;20255;-75
2022/04/02 12:28:20;;;;;;;5.03;4.03;;;4.60;1.00;;;;;;5057918;28;20186;-75
2022/04/02 12:30:48;;;;;;;6.40;3.60;;;4.60;62.10;;;;;;5056365;28;20550;-76
2022/04/02 12:33:26;;;;;;;5.40;3.93;;;4.50;24.10;;;;;;5041140;28;20212;-76
2022/04/02 12:35:55;;;;;;;6.40;3.47;;;4.50;98.80;;;;;;5037982;28;20254;-76
2022/04/02 12:38:29;;;;;;;5.17;3.67;;;4.60;96.20;;;;;;5037934;28;20183;-76
2022/04/02 12:40:57;;;;;;;5.27;3.50;;;4.60;1.00;;;;;;5038232;28;20643;-76
2022/04/02 12:43:28;;;;;;;7.73;3.87;;;4.60;1.00;;;;;;5063531;28;20237;-76
2022/04/02 12:45:53;;;;;;;6.30;3.87;;;4.70;1.00;;;;;;5059358;28;20183;-77
2022/04/02 12:48:20;;;;;;;5.50;3.63;;;4.80;1.00;;;;;;5077161;28;20186;-77
2022/04/02 12:50:52;;;;;;;7.37;4.23;;;4.90;10.00;;;;;;5077528;28;20174;-76
2022/04/02 12:53:32;;;;;;;6.57;3.17;;;5.00;99.90;;;;;;5058826;28;20268;-76
2022/04/02 12:56:03;;;;;;;5.33;3.27;;;5.00;99.90;;;;;;5077588;28;20627;-75
2022/04/02 12:58:40;;;;;;;4.87;3.30;;;5.10;99.90;;;;;;5059982;28;20617;-75
2022/04/02 13:01:19;;;;;;;5.43;2.60;;;5.20;99.90;;;;;;5078507;28;20238;-75
2022/04/02 13:03:59;;;;;;;5.83;3.70;;;5.20;99.90;;;;;;5057176;28;20203;-75
2022/04/02 13:06:26;;;;;;;5.00;3.63;;;5.40;1.00;;;;;;5057201;28;20181;-76
2022/04/02 13:09:01;;;;;;;4.83;3.10;;;5.50;1.00;;;;;;5057674;28;20200;-75
2022/04/02 13:11:54;;;;;;;3.53;2.93;;;5.50;1.00;;;;;;5056848;28;20160;-78
2022/04/02 13:14:21;;;;;;;4.40;3.00;;;5.50;99.90;;;;;;5038670;28;20265;-76
2022/04/02 13:16:48;;;;;;;4.53;2.63;;;5.50;99.90;;;;;;5057057;28;20179;-75
2022/04/02 13:22:15;;;;;;;4.37;2.73;;;5.50;1.00;;;;;;5057759;28;20669;-76
2022/04/02 13:24:40;;;;;;;4.07;2.83;;;5.50;99.90;;;;;;5040275;28;20182;-75